Time;durP1;ratioP1;P1;durP2;ratioP2;P2;SDS_P1;SDS_P2;PMS_P1;PMS_P2;Temp;Humidity;BMP_temperature;BMP_pressure;BME280_temperature;BME280_humidity;BME280_pressure;Samples;Min_cycle;Max_cycle;Signal;HPM_P1;HPM_P2
2022/04/01 00:00:08;;;;;;;20.17;18.07;;;;;;;3.52;100.00;98296.19;4984906;28;20171;-61
2022/04/01 00:02:34;;;;;;;18.93;17.13;;;;;;;3.52;100.00;98295.34;4978353;28;20224;-61
2022/04/01 00:04:59;;;;;;;19.90;17.97;;;;;;;3.41;100.00;98301.00;4993339;28;20178;-61
2022/04/01 00:07:25;;;;;;;20.37;18.40;;;;;;;3.35;100.00;98298.78;4993784;28;20176;-60
2022/04/01 00:09:50;;;;;;;19.23;17.33;;;;;;;3.32;100.00;98304.06;4994709;28;20228;-61
2022/04/01 00:12:16;;;;;;;20.47;18.40;;;;;;;3.30;100.00;98300.75;4983861;28;20659;-61
2022/04/01 00:14:41;;;;;;;19.73;17.63;;;;;;;3.21;100.00;98300.38;4994665;28;20180;-59
2022/04/01 00:17:06;;;;;;;18.63;16.83;;;;;;;3.17;100.00;98303.97;4994845;28;20179;-59
2022/04/01 00:19:32;;;;;;;19.43;16.23;;;;;;;3.03;100.00;98302.16;4993553;28;20813;-59
2022/04/01 00:21:58;;;;;;;19.63;17.73;;;;;;;3.04;100.00;98303.00;4983212;28;20226;-60
2022/04/01 00:24:24;;;;;;;19.17;17.27;;;;;;;2.98;100.00;98304.13;4992334;28;20685;-59
2022/04/01 00:26:49;;;;;;;17.53;15.67;;;;;;;3.00;100.00;98311.66;4994794;28;20174;-59
2022/04/01 00:29:15;;;;;;;17.77;16.07;;;;;;;2.95;100.00;98301.72;4993499;28;20218;-59
2022/04/01 00:31:45;;;;;;;18.60;16.70;;;;;;;2.97;100.00;98309.28;4986194;28;20318;-59
2022/04/01 00:34:17;;;;;;;19.30;17.40;;;;;;;2.97;100.00;98299.94;4992361;28;20533;-60
2022/04/01 00:36:51;;;;;;;20.17;18.20;;;;;;;2.98;100.00;98306.66;4994572;28;20230;-60
2022/04/01 00:39:18;;;;;;;19.97;18.00;;;;;;;3.13;100.00;98304.22;4994435;28;20183;-61
2022/04/01 00:41:45;;;;;;;18.30;16.60;;;;;;;3.11;100.00;98304.28;4974805;28;20215;-60
2022/04/01 00:44:15;;;;;;;19.93;17.90;;;;;;;3.13;100.00;98307.56;4990134;28;20193;-60
2022/04/01 00:46:44;;;;;;;18.97;17.17;;;;;;;3.23;100.00;98300.28;4992935;28;20191;-61
2022/04/01 00:49:10;;;;;;;18.87;17.07;;;;;;;3.29;100.00;98302.50;4992983;28;20192;-61
2022/04/01 00:51:37;;;;;;;19.33;17.47;;;;;;;3.26;100.00;98304.38;4983470;28;20224;-61
2022/04/01 00:54:05;;;;;;;19.13;17.23;;;;;;;3.13;100.00;98312.66;4988593;28;20287;-60
2022/04/01 00:56:32;;;;;;;20.30;18.30;;;;;;;3.07;100.00;98318.06;4992931;28;20674;-59
2022/04/01 00:58:58;;;;;;;18.47;16.77;;;;;;;3.11;100.00;98306.81;4983437;28;20178;-59
2022/04/01 01:01:24;;;;;;;17.50;15.90;;;;;;;3.12;100.00;98313.56;4966254;28;20758;-62
2022/04/01 01:03:50;;;;;;;19.97;18.03;;;;;;;3.27;100.00;98309.38;4978718;28;20360;-60
2022/04/01 01:06:17;;;;;;;19.87;17.87;;;;;;;3.44;100.00;98311.03;4973081;28;20262;-60
2022/04/01 01:08:42;;;;;;;18.87;17.07;;;;;;;3.47;100.00;98305.75;4972985;28;20230;-60
2022/04/01 01:11:08;;;;;;;19.00;17.20;;;;;;;3.33;100.00;98303.97;4972610;28;20597;-60
2022/04/01 01:13:34;;;;;;;19.50;17.60;;;;;;;3.47;100.00;98307.50;4980684;28;20178;-61
2022/04/01 01:15:59;;;;;;;19.03;17.17;;;;;;;3.44;100.00;98300.03;4974343;28;20534;-61
2022/04/01 01:18:25;;;;;;;17.43;15.53;;;;;;;3.18;100.00;98299.72;4974377;28;20172;-62
2022/04/01 01:20:51;;;;;;;19.00;17.20;;;;;;;3.12;100.00;98298.31;4970400;28;20755;-60
2022/04/01 01:23:16;;;;;;;18.70;16.90;;;;;;;3.05;100.00;98296.97;4997735;28;20270;-60
2022/04/01 01:25:41;;;;;;;19.30;17.33;;;;;;;2.99;100.00;98293.06;4992255;28;20184;-60
2022/04/01 01:28:07;;;;;;;19.70;17.90;;;;;;;2.95;100.00;98299.19;4993403;28;20180;-61
2022/04/01 01:30:32;;;;;;;18.97;17.27;;;;;;;2.96;100.00;98292.41;4985010;28;20563;-61
2022/04/01 01:32:58;;;;;;;19.47;17.57;;;;;;;2.88;100.00;98290.25;4991702;28;20180;-62
2022/04/01 01:35:23;;;;;;;19.60;17.60;;;;;;;3.15;100.00;98294.78;4983317;28;20621;-61
2022/04/01 01:37:48;;;;;;;19.60;17.80;;;;;;;3.18;100.00;98292.09;4978359;28;20192;-65
2022/04/01 01:40:14;;;;;;;19.33;17.53;;;;;;;3.30;100.00;98285.50;4972234;28;20181;-61
2022/04/01 01:42:40;;;;;;;17.97;16.17;;;;;;;3.30;100.00;98283.81;4972720;28;20181;-62
2022/04/01 01:45:06;;;;;;;18.30;16.60;;;;;;;3.47;100.00;98284.63;4986889;28;20176;-62
2022/04/01 01:47:31;;;;;;;16.83;15.30;;;;;;;3.22;100.00;98291.00;4991783;28;20274;-61
2022/04/01 01:55:27;;;;;;;18.83;17.03;;;;;;;2.97;100.00;98292.31;4973424;28;20176;-59
2022/04/01 01:57:52;;;;;;;18.27;16.53;;;;;;;3.09;100.00;98295.94;4992771;28;20184;-60
2022/04/01 02:00:22;;;;;;;19.43;17.53;;;;;;;3.22;100.00;98286.78;4982465;28;20187;-60
2022/04/01 02:02:48;;;;;;;17.60;15.90;;;;;;;3.25;100.00;98292.56;4991595;28;20228;-60
2022/04/01 02:05:16;;;;;;;18.00;16.30;;;;;;;3.22;100.00;98288.47;4992407;28;20594;-60
2022/04/01 02:07:47;;;;;;;18.03;16.33;;;;;;;3.30;100.00;98285.50;4992997;28;20293;-61
2022/04/01 02:10:16;;;;;;;17.73;16.13;;;;;;;3.13;100.00;98277.09;4981151;28;20758;-61
2022/04/01 02:12:43;;;;;;;17.60;15.90;;;;;;;3.02;100.00;98287.81;4977053;28;20224;-60
2022/04/01 02:15:12;;;;;;;17.77;16.07;;;;;;;2.87;100.00;98286.88;4992021;28;20234;-61
2022/04/01 02:17:39;;;;;;;18.70;17.00;;;;;;;2.81;100.00;98289.75;4991459;28;20647;-60
2022/04/01 02:20:11;;;;;;;17.73;16.00;;;;;;;2.67;100.00;98293.00;4981016;28;20179;-61
2022/04/01 02:22:37;;;;;;;16.90;15.20;;;;;;;2.67;100.00;98289.66;4976175;28;20570;-60
2022/04/01 02:25:05;;;;;;;17.73;16.03;;;;;;;2.68;100.00;98286.19;4990651;28;20182;-60
2022/04/01 02:27:31;;;;;;;17.23;15.53;;;;;;;2.71;100.00;98286.06;4991105;28;20629;-60
2022/04/01 02:29:57;;;;;;;17.97;16.27;;;;;;;2.74;100.00;98294.34;4992114;28;20693;-59
2022/04/01 02:32:26;;;;;;;19.17;17.37;;;;;;;2.59;100.00;98284.94;4995319;28;20228;-59
2022/04/01 02:34:51;;;;;;;19.10;17.10;;;;;;;2.47;100.00;98288.09;4971615;28;20176;-59
2022/04/01 02:37:21;;;;;;;19.57;17.67;;;;;;;2.52;100.00;98281.91;4990811;28;20587;-59
2022/04/01 02:39:46;;;;;;;17.40;15.73;;;;;;;2.50;100.00;98290.50;4990939;28;20587;-60
2022/04/01 02:42:12;;;;;;;19.27;17.20;;;;;;;2.49;100.00;98286.31;4997581;28;20248;-60
2022/04/01 02:44:37;;;;;;;17.33;15.60;;;;;;;2.34;100.00;98285.38;4991811;28;20202;-60
2022/04/01 02:47:03;;;;;;;19.73;17.83;;;;;;;2.39;100.00;98281.72;4974994;28;20662;-59
2022/04/01 02:49:29;;;;;;;17.10;15.43;;;;;;;2.44;100.00;98283.19;4992283;28;20237;-60
2022/04/01 02:51:54;;;;;;;17.93;16.23;;;;;;;2.26;100.00;98289.09;4997531;28;20325;-60
2022/04/01 02:54:23;;;;;;;17.13;15.43;;;;;;;2.16;100.00;98287.94;4997034;28;20183;-60
2022/04/01 02:56:48;;;;;;;17.50;15.67;;;;;;;2.24;100.00;98290.09;4994760;28;20206;-59
2022/04/01 02:59:13;;;;;;;17.80;16.10;;;;;;;2.25;100.00;98292.53;4996642;28;20214;-60
2022/04/01 03:01:42;;;;;;;18.17;16.37;;;;;;;2.26;100.00;98296.72;4951899;28;20244;-59
2022/04/01 03:04:09;;;;;;;18.03;16.23;;;;;;;2.16;100.00;98298.06;4992337;28;20632;-60
2022/04/01 03:06:39;;;;;;;18.10;16.33;;;;;;;2.18;100.00;98293.72;4994839;28;20194;-59
2022/04/01 03:09:06;;;;;;;16.77;15.07;;;;;;;2.10;100.00;98295.84;4994798;28;20203;-60
2022/04/01 03:11:31;;;;;;;17.10;15.47;;;;;;;2.22;100.00;98296.94;4975561;28;20231;-59
2022/04/01 03:13:57;;;;;;;17.00;15.40;;;;;;;2.26;100.00;98290.84;4995132;28;20183;-60
2022/04/01 03:16:22;;;;;;;17.70;16.00;;;;;;;2.18;100.00;98296.25;4976579;28;20696;-59
2022/04/01 03:18:48;;;;;;;18.07;16.27;;;;;;;2.20;100.00;98294.47;4995534;28;20250;-59
2022/04/01 03:21:13;;;;;;;16.70;15.10;;;;;;;2.39;100.00;98291.88;4985367;28;20804;-59
2022/04/01 03:23:41;;;;;;;17.47;15.67;;;;;;;2.30;100.00;98294.84;4987353;28;20545;-60
2022/04/01 03:26:07;;;;;;;18.13;16.37;;;;;;;2.25;100.00;98296.81;4994070;28;20226;-59
2022/04/01 03:28:33;;;;;;;17.63;15.90;;;;;;;2.26;100.00;98294.19;4994490;28;20187;-59
2022/04/01 03:31:00;;;;;;;17.30;15.60;;;;;;;2.40;100.00;98297.75;4972977;28;20725;-60
2022/04/01 03:33:25;;;;;;;17.10;15.40;;;;;;;2.37;100.00;98302.97;4992684;28;20180;-61
2022/04/01 03:35:50;;;;;;;18.10;16.40;;;;;;;2.44;100.00;98300.97;4994240;28;20188;-59
2022/04/01 03:38:16;;;;;;;17.13;15.50;;;;;;;2.55;100.00;98301.25;4995418;28;20186;-58
2022/04/01 03:40:41;;;;;;;16.17;14.63;;;;;;;2.58;100.00;98309.53;4966897;28;20235;-61
2022/04/01 03:43:08;;;;;;;16.77;15.17;;;;;;;2.65;100.00;98304.13;4974778;28;20186;-60
2022/04/01 03:45:34;;;;;;;15.50;13.90;;;;;;;2.51;100.00;98304.84;4975907;28;20176;-59
2022/04/01 03:48:06;;;;;;;15.33;13.90;;;;;;;2.58;100.00;98303.63;4974440;28;20176;-60
2022/04/01 03:50:34;;;;;;;15.93;14.43;;;;;;;2.58;100.00;98301.91;4963762;28;20232;-60
2022/04/01 03:53:08;;;;;;;15.23;13.73;;;;;;;2.58;100.00;98309.53;4973333;28;20188;-60
2022/04/01 03:55:41;;;;;;;15.67;14.17;;;;;;;2.36;100.00;98309.78;4974725;28;20186;-59
2022/04/01 03:58:09;;;;;;;15.17;13.73;;;;;;;2.49;100.00;98304.09;4974343;28;20181;-60
2022/04/01 04:00:36;;;;;;;15.77;14.27;;;;;;;2.64;100.00;98310.94;4967397;28;20235;-60
2022/04/01 04:03:08;;;;;;;15.43;13.93;;;;;;;2.59;100.00;98315.41;4973562;28;20234;-61
2022/04/01 04:05:36;;;;;;;15.43;14.00;;;;;;;2.56;100.00;98308.78;4975493;28;20172;-60
2022/04/01 04:08:02;;;;;;;14.80;13.40;;;;;;;2.66;100.00;98319.28;4974241;28;20180;-61
2022/04/01 04:10:29;;;;;;;14.57;13.13;;;;;;;2.73;100.00;98309.66;4967364;28;20224;-60
2022/04/01 04:12:56;;;;;;;15.30;13.90;;;;;;;2.87;100.00;98319.09;4985656;28;20336;-61
2022/04/01 04:15:26;;;;;;;14.47;13.07;;;;;;;2.86;100.00;98325.06;5014068;28;20192;-61
2022/04/01 04:17:57;;;;;;;14.30;13.00;;;;;;;2.66;100.00;98321.81;5014179;28;20187;-59
2022/04/01 04:20:30;;;;;;;13.47;12.23;;;;;;;2.52;100.00;98324.25;4986695;28;20238;-60
2022/04/01 04:23:11;;;;;;;14.30;12.90;;;;;;;2.45;100.00;98321.19;4987496;28;20175;-60
2022/04/01 04:25:38;;;;;;;13.83;12.53;;;;;;;2.53;100.00;98326.72;4993342;28;20215;-60
2022/04/01 04:28:10;;;;;;;13.00;11.80;;;;;;;2.67;100.00;98330.28;4992945;28;20179;-60
2022/04/01 04:30:49;;;;;;;13.07;11.90;;;;;;;2.71;100.00;98330.03;4983286;28;20227;-59
2022/04/01 04:33:17;;;;;;;14.53;13.23;;;;;;;2.75;100.00;98333.22;4990439;28;20206;-61
2022/04/01 04:35:48;;;;;;;13.03;11.83;;;;;;;2.81;100.00;98340.53;4994424;28;20251;-60
2022/04/01 04:38:14;;;;;;;12.63;11.43;;;;;;;2.64;100.00;98336.34;4975446;28;20217;-60
2022/04/01 04:40:41;;;;;;;12.03;10.87;;;;;;;2.56;100.00;98346.03;4961666;28;20816;-60
2022/04/01 04:43:07;;;;;;;12.07;10.97;;;;;;;2.56;100.00;98348.56;4962053;28;20211;-60
2022/04/01 04:45:33;;;;;;;11.70;10.70;;;;;;;2.89;100.00;98342.69;4973679;28;20215;-60
2022/04/01 04:47:58;;;;;;;12.23;11.13;;;;;;;2.66;100.00;98343.88;4973453;28;20304;-60
2022/04/01 04:50:23;;;;;;;12.10;11.00;;;;;;;2.78;100.00;98340.72;4982086;28;20721;-61
2022/04/01 04:52:53;;;;;;;11.53;10.53;;;;;;;2.88;100.00;98348.69;4993118;28;20181;-62
2022/04/01 04:55:20;;;;;;;10.73;9.83;;;;;;;2.89;100.00;98348.59;4992604;28;20175;-61
2022/04/01 04:57:47;;;;;;;11.67;10.67;;;;;;;2.78;100.00;98352.56;4992561;28;20172;-59
2022/04/01 05:00:13;;;;;;;11.20;10.20;;;;;;;2.74;100.00;98356.97;4985062;28;20585;-60
2022/04/01 05:03:16;;;;;;;10.20;9.20;;;;;;;2.64;100.00;98359.19;5007558;28;20281;-60
2022/04/01 05:05:51;;;;;;;10.53;9.53;;;;;;;2.57;100.00;98366.25;4994163;28;20171;-60
2022/04/01 05:09:10;;;;;;;10.87;9.77;;;;;;;2.63;100.00;98365.16;4992704;28;20210;-62
2022/04/01 05:12:04;;;;;;;10.57;9.67;;;;;;;2.91;100.00;98371.38;4962031;28;20264;-61
2022/04/01 05:14:43;;;;;;;9.83;9.03;;;;;;;2.99;100.00;98365.88;4954659;28;20662;-62
2022/04/01 05:17:17;;;;;;;10.37;9.47;;;;;;;2.86;98.85;98378.41;4972071;28;20176;-61
2022/04/01 05:19:55;;;;;;;9.27;8.43;;;;;;;2.80;98.51;98384.59;4955829;28;20192;-61
2022/04/01 05:22:29;;;;;;;11.03;9.93;;;;;;;2.94;98.57;98385.63;4942734;28;20679;-61
2022/04/01 05:25:00;;;;;;;11.17;10.07;;;;;;;2.84;98.62;98388.66;4953245;28;20667;-63
2022/04/01 05:27:30;;;;;;;10.13;9.23;;;;;;;2.74;97.92;98400.13;4955626;28;20176;-60
2022/04/01 05:30:18;;;;;;;9.70;8.70;;;;;;;2.53;96.84;98391.88;4953128;28;20806;-60
2022/04/01 05:32:57;;;;;;;9.03;8.13;;;;;;;2.45;97.81;98393.97;4924119;29;20220;-60
2022/04/01 05:35:29;;;;;;;10.73;9.63;;;;;;;2.55;98.68;98400.25;4930844;29;20200;-60
2022/04/01 05:37:55;;;;;;;9.67;8.67;;;;;;;2.55;97.59;98402.78;4952562;29;20181;-60
2022/04/01 05:40:21;;;;;;;9.40;8.50;;;;;;;2.57;96.38;98404.34;4942588;29;20199;-60
2022/04/01 05:42:48;;;;;;;10.37;8.90;;;;;;;2.62;96.59;98414.28;4983735;28;20183;-59
2022/04/01 05:45:16;;;;;;;9.97;9.07;;;;;;;2.76;97.25;98416.13;4992035;28;20184;-60
2022/04/01 05:47:43;;;;;;;10.90;9.67;;;;;;;2.88;96.18;98419.78;4991751;28;20184;-60
2022/04/01 05:50:09;;;;;;;9.87;8.47;;;;;;;2.69;94.74;98424.94;4981868;28;20579;-60
2022/04/01 05:52:37;;;;;;;7.83;6.47;;;;;;;2.54;94.29;98431.59;4976933;28;20650;-60
2022/04/01 05:55:03;;;;;;;8.60;7.80;;;;;;;2.45;94.62;98430.31;4991809;28;20187;-60
2022/04/01 05:57:28;;;;;;;12.67;9.17;;;;;;;2.43;94.48;98434.63;4993171;28;20183;-60
2022/04/01 05:59:54;;;;;;;10.60;8.50;;;;;;;2.48;94.27;98436.97;4991776;28;20183;-59
2022/04/01 06:03:05;;;;;;;10.17;8.43;;;;;;;2.46;94.30;98429.44;4997996;28;20601;-61
2022/04/01 06:05:49;;;;;;;10.23;9.13;;;;;;;2.40;93.70;98429.72;4991889;28;20179;-61
2022/04/01 06:08:31;;;;;;;9.20;8.33;;;;;;;2.42;91.89;98438.91;5008004;28;20222;-61
2022/04/01 06:11:12;;;;;;;9.30;8.23;;;;;;;2.42;92.38;98441.44;5001133;28;20232;-62
2022/04/01 06:14:00;;;;;;;9.10;8.10;;;;;;;2.39;91.15;98446.66;4999021;28;20246;-61
2022/04/01 06:16:48;;;;;;;9.50;8.40;;;;;;;2.29;91.73;98444.63;4983811;28;20183;-61
2022/04/01 06:19:24;;;;;;;8.87;7.97;;;;;;;2.30;91.75;98443.75;4983633;28;20199;-59
2022/04/01 06:22:14;;;;;;;10.07;9.03;;;;;;;2.35;91.75;98459.56;4978433;28;20296;-61
2022/04/01 06:25:03;;;;;;;10.87;8.80;;;;;;;2.27;91.27;98457.41;5004513;28;20589;-61
2022/04/01 06:27:38;;;;;;;11.30;8.83;;;;;;;2.24;92.59;98455.00;4997433;28;20190;-61
2022/04/01 06:30:12;;;;;;;8.07;7.27;;;;;;;2.29;92.22;98463.22;4995138;28;20191;-61
2022/04/01 06:32:47;;;;;;;9.57;8.10;;;;;;;2.25;91.79;98469.31;5018743;28;20202;-62
2022/04/01 06:35:18;;;;;;;8.53;7.63;;;;;;;2.20;90.67;98468.72;5009547;28;20186;-61
2022/04/01 06:38:03;;;;;;;8.60;7.60;;;;;;;2.18;91.34;98466.22;5000511;28;20182;-60
2022/04/01 06:40:53;;;;;;;8.27;7.13;;;;;;;2.19;90.96;98478.03;5000593;28;20291;-60
2022/04/01 06:43:18;;;;;;;8.93;8.03;;;;;;;2.19;90.69;98479.75;5009580;28;20175;-60
2022/04/01 06:45:44;;;;;;;9.93;9.03;;;;;;;2.22;90.46;98485.50;5008978;28;20633;-61
2022/04/01 06:48:09;;;;;;;9.20;8.27;;;;;;;2.28;90.39;98483.59;5006821;28;20312;-61
2022/04/01 06:50:35;;;;;;;10.63;9.37;;;;;;;2.35;89.93;98493.38;5002410;28;20281;-60
2022/04/01 06:53:00;;;;;;;9.50;8.60;;;;;;;2.24;88.71;98498.94;5020324;28;20318;-62
2022/04/01 06:55:26;;;;;;;10.20;9.10;;;;;;;2.15;89.52;98501.09;5011216;28;20582;-60
2022/04/01 06:57:52;;;;;;;10.17;8.40;;;;;;;2.16;89.39;98497.63;5010944;28;20189;-61
2022/04/01 07:00:19;;;;;;;10.47;8.40;;;;;;;2.18;89.25;98499.22;4991356;28;20218;-60
2022/04/01 07:02:46;;;;;;;11.47;9.20;;;;;;;2.18;89.59;98504.28;5009552;28;20579;-60
2022/04/01 07:05:12;;;;;;;9.63;8.67;;;;;;;2.16;89.07;98515.41;5006660;28;20182;-62
2022/04/01 07:07:41;;;;;;;8.97;8.07;;;;;;;2.08;88.68;98516.59;5009175;28;20206;-61
2022/04/01 07:10:13;;;;;;;10.80;8.90;;;;;;;2.05;88.66;98511.66;5000566;28;20194;-61
2022/04/01 07:12:39;;;;;;;9.33;8.43;;;;;;;2.07;89.07;98520.00;4994921;28;20194;-61
2022/04/01 07:15:07;;;;;;;9.17;8.13;;;;;;;1.97;88.81;98523.03;4999377;28;20198;-63
2022/04/01 07:17:33;;;;;;;9.63;8.63;;;;;;;2.02;89.42;98510.97;4993366;28;20271;-61
2022/04/01 07:19:58;;;;;;;9.47;8.57;;;;;;;2.17;90.32;98515.34;4990784;28;20578;-65
2022/04/01 07:22:24;;;;;;;11.07;8.53;;;;;;;2.67;90.16;98515.63;4978530;28;20240;-62
2022/04/01 07:24:50;;;;;;;14.87;8.53;;;;;;;2.41;85.01;98522.72;4986044;28;20222;-66
2022/04/01 07:27:15;;;;;;;9.03;8.13;;;;;;;2.28;84.86;98530.06;4980336;28;20200;-65
2022/04/01 07:29:40;;;;;;;8.80;7.83;;;;;;;2.16;85.69;98523.84;4972679;28;20195;-65
2022/04/01 07:34:51;;;;;;;9.93;8.97;;;;;;;2.25;85.68;98535.28;4974382;28;20186;-66
2022/04/01 07:37:22;;;;;;;10.03;8.33;;;;;;;2.23;85.84;98544.69;4975011;28;20219;-66
2022/04/01 07:39:48;;;;;;;9.23;7.57;;;;;;;2.01;85.43;98542.28;4975652;28;20176;-68
2022/04/01 07:42:13;;;;;;;8.67;7.33;;;;;;;1.98;85.61;98544.97;4969659;28;20302;-67
2022/04/01 07:44:39;;;;;;;8.27;7.47;;;;;;;1.91;85.17;98540.16;4990875;28;20204;-67
2022/04/01 07:47:09;;;;;;;8.50;7.70;;;;;;;2.07;85.31;98547.06;4979085;28;20281;-65
2022/04/01 07:49:37;;;;;;;11.13;8.17;;;;;;;2.17;84.94;98553.41;4974215;28;20640;-67
2022/04/01 07:52:04;;;;;;;9.13;8.10;;;;;;;2.17;84.04;98548.34;4965908;28;20580;-66
2022/04/01 07:54:29;;;;;;;8.80;6.70;;;;;;;2.07;83.99;98553.00;4974958;28;20180;-68
2022/04/01 07:56:55;;;;;;;8.23;7.43;;;;;;;2.05;84.50;98549.69;4990634;28;20711;-66
2022/04/01 07:59:21;;;;;;;8.37;6.80;;;;;;;2.09;84.99;98558.00;4974164;28;20596;-66
2022/04/01 08:01:46;;;;;;;9.20;7.50;;;;;;;2.07;84.65;98557.22;4964070;28;20234;-65
2022/04/01 08:04:11;;;;;;;7.27;6.30;;;;;;;2.01;84.41;98563.41;4970887;28;20184;-65
2022/04/01 08:06:37;;;;;;;7.83;6.90;;;;;;;2.04;84.40;98562.44;4975297;28;20238;-66
2022/04/01 08:09:02;;;;;;;9.00;7.57;;;;;;;2.09;85.47;98571.47;4975366;28;20275;-64
2022/04/01 08:11:28;;;;;;;10.87;8.17;;;;;;;2.03;84.76;98568.41;4964644;28;20312;-65
2022/04/01 08:13:55;;;;;;;12.53;6.67;;;;;;;2.06;84.63;98575.88;4969239;28;20184;-65
2022/04/01 08:16:21;;;;;;;7.00;5.67;;;;;;;1.97;84.84;98574.56;4973992;28;20195;-67
2022/04/01 08:18:48;;;;;;;7.30;6.23;;;;;;;1.96;84.48;98579.69;4990007;28;20631;-66
2022/04/01 08:21:14;;;;;;;8.83;6.63;;;;;;;1.89;85.46;98579.97;4983576;28;20306;-65
2022/04/01 08:23:40;;;;;;;7.20;6.23;;;;;;;1.89;85.05;98591.84;4984726;28;20226;-66
2022/04/01 08:26:05;;;;;;;8.10;7.27;;;;;;;1.88;85.19;98588.47;4975050;28;20203;-66
2022/04/01 08:28:31;;;;;;;7.00;5.43;;;;;;;2.00;85.05;98591.34;4986503;28;20555;-67
2022/04/01 08:30:57;;;;;;;10.63;6.40;;;;;;;1.95;84.24;98589.03;4966860;28;20258;-66
2022/04/01 08:33:22;;;;;;;9.00;6.87;;;;;;;1.90;83.34;98590.97;4989402;28;20659;-64
2022/04/01 08:35:48;;;;;;;7.43;6.70;;;;;;;2.04;83.88;98592.88;4975123;28;20184;-65
2022/04/01 08:38:14;;;;;;;8.53;7.10;;;;;;;1.99;82.55;98590.53;4974975;28;20177;-65
2022/04/01 08:40:40;;;;;;;8.47;7.07;;;;;;;2.07;83.08;98598.66;4964845;28;20258;-65
2022/04/01 08:43:06;;;;;;;9.90;6.97;;;;;;;2.03;82.85;98597.13;4972994;28;20188;-65
2022/04/01 08:45:36;;;;;;;7.80;6.10;;;;;;;2.02;81.73;98597.19;4973634;28;20199;-64
2022/04/01 08:48:04;;;;;;;7.60;6.80;;;;;;;2.06;82.87;98602.06;4973412;28;20227;-67
2022/04/01 08:50:29;;;;;;;7.07;6.00;;;;;;;2.10;81.91;98598.50;4969809;28;20323;-65
2022/04/01 08:52:54;;;;;;;7.00;6.30;;;;;;;2.23;80.82;98596.25;4962645;28;20551;-66
2022/04/01 08:55:20;;;;;;;7.97;6.30;;;;;;;2.01;79.82;98608.22;4973865;28;20617;-67
2022/04/01 08:57:45;;;;;;;7.17;6.47;;;;;;;1.97;80.52;98606.72;4989662;28;20664;-66
2022/04/01 09:00:13;;;;;;;8.37;5.50;;;;;;;1.93;80.25;98609.41;4964355;28;20180;-65
2022/04/01 09:02:40;;;;;;;6.63;5.73;;;;;;;1.97;80.38;98619.41;4973070;28;20671;-63
2022/04/01 09:05:06;;;;;;;8.13;7.17;;;;;;;2.05;80.36;98623.25;4974061;28;20648;-64
2022/04/01 09:07:32;;;;;;;5.30;4.80;;;;;;;2.02;79.89;98618.31;4972603;28;20184;-65
2022/04/01 09:10:03;;;;;;;9.67;7.07;;;;;;;2.00;80.73;98620.09;4972694;28;20743;-64
2022/04/01 09:12:29;;;;;;;7.17;6.50;;;;;;;1.98;80.67;98628.66;4947148;28;20676;-66
2022/04/01 09:14:58;;;;;;;8.77;7.40;;;;;;;2.04;80.47;98625.84;4973207;28;20651;-67
2022/04/01 09:17:59;;;;;;;6.37;5.77;;;;;;;1.98;79.76;98637.06;4975741;28;20184;-63
2022/04/01 09:20:26;;;;;;;7.53;6.63;;;;;;;2.03;79.29;98636.88;4960664;28;20234;-64
2022/04/01 09:22:57;;;;;;;7.47;6.60;;;;;;;2.16;79.60;98639.72;4956805;28;20223;-64
2022/04/01 09:25:22;;;;;;;6.97;6.23;;;;;;;2.24;79.07;98646.09;4973198;28;20188;-64
2022/04/01 09:27:52;;;;;;;11.50;7.00;;;;;;;2.11;78.79;98647.53;4971224;28;20208;-64
2022/04/01 09:30:22;;;;;;;6.33;5.73;;;;;;;1.94;78.82;98645.72;4943196;28;20291;-63
2022/04/01 09:32:53;;;;;;;6.53;5.93;;;;;;;1.95;78.66;98644.84;4960882;28;20213;-64
2022/04/01 09:35:25;;;;;;;21.43;6.60;;;;;;;1.99;79.53;98651.41;4970942;28;20204;-62
2022/04/01 09:38:01;;;;;;;6.57;5.93;;;;;;;2.04;79.38;98652.03;4974628;28;20223;-63
2022/04/01 09:40:28;;;;;;;9.00;5.90;;;;;;;2.18;79.24;98656.50;4959056;28;20231;-62
2022/04/01 09:42:59;;;;;;;7.57;6.97;;;;;;;2.37;78.64;98660.78;4959645;28;20438;-67
2022/04/01 09:45:30;;;;;;;7.43;6.73;;;;;;;2.25;77.48;98664.69;4980918;28;21083;-65
2022/04/01 09:48:07;;;;;;;7.53;6.47;;;;;;;2.08;77.77;98671.31;4974380;28;20195;-67
2022/04/01 09:50:38;;;;;;;6.60;6.00;;;;;;;2.04;78.51;98664.72;4962444;28;20711;-64
2022/04/01 09:53:08;;;;;;;7.27;6.30;;;;;;;2.15;78.28;98668.53;4952564;28;20198;-66
2022/04/01 09:55:38;;;;;;;6.57;5.97;;;;;;;2.12;78.05;98664.38;4976658;28;20195;-64
2022/04/01 09:58:07;;;;;;;7.50;5.97;;;;;;;2.25;77.33;98654.53;4972799;28;20207;-63
2022/04/01 10:00:33;;;;;;;6.60;5.50;;;;;;;2.17;77.02;98659.97;4962588;28;20356;-63
2022/04/01 10:02:59;;;;;;;5.80;5.30;;;;;;;2.18;76.73;98663.31;4959062;28;20271;-64
2022/04/01 10:05:26;;;;;;;7.27;5.87;;;;;;;2.13;76.67;98671.09;4972938;28;20616;-61
2022/04/01 10:07:53;;;;;;;5.67;5.17;;;;;;;1.96;76.84;98678.59;4973156;28;20172;-62
2022/04/01 10:10:19;;;;;;;8.93;6.30;;;;;;;1.98;77.77;98670.03;4964430;28;20211;-63
2022/04/01 10:12:47;;;;;;;7.07;5.17;;;;;;;2.05;77.53;98671.44;4977900;28;20550;-63
2022/04/01 10:15:13;;;;;;;6.00;5.37;;;;;;;2.06;76.04;98665.47;4971194;28;20208;-65
2022/04/01 10:17:40;;;;;;;8.67;5.93;;;;;;;2.10;76.27;98667.00;4980287;28;20191;-63
2022/04/01 10:20:08;;;;;;;6.40;5.70;;;;;;;2.08;76.40;98668.78;4966410;28;20559;-64
2022/04/01 10:22:35;;;;;;;7.23;5.50;;;;;;;1.97;76.53;98678.53;4958215;28;20303;-64
2022/04/01 10:25:29;;;;;;;5.77;5.13;;;;;;;2.04;76.88;98681.66;4970570;28;20188;-64
2022/04/01 10:27:57;;;;;;;7.20;5.80;;;;;;;2.01;76.66;98687.69;4987072;28;20211;-64
2022/04/01 10:30:25;;;;;;;6.53;5.77;;;;;;;2.02;75.95;98691.88;4977195;28;20761;-62
2022/04/01 10:32:51;;;;;;;5.97;5.40;;;;;;;2.05;76.31;98681.59;4971905;28;20238;-63
2022/04/01 10:35:27;;;;;;;6.20;5.40;;;;;;;2.24;75.39;98686.69;4983293;28;20685;-62
2022/04/01 10:38:12;;;;;;;6.60;5.53;;;;;;;2.45;75.62;98688.38;4990933;28;20198;-64
2022/04/01 10:40:40;;;;;;;7.03;6.37;;;;;;;2.45;73.52;98690.91;4961996;28;20231;-63
2022/04/01 10:43:29;;;;;;;7.07;5.10;;;;;;;2.49;74.28;98692.44;4970815;28;20188;-64
2022/04/01 10:46:05;;;;;;;6.53;5.77;;;;;;;2.38;75.10;98686.13;4974725;28;20192;-64
2022/04/01 10:54:12;;;;;;;5.10;4.60;;;;;;;2.13;75.53;98714.22;4971701;28;20187;-64
2022/04/01 10:56:38;;;;;;;5.27;3.87;;;;;;;1.97;75.65;98721.66;4987075;28;20186;-62
2022/04/01 10:59:09;;;;;;;7.50;5.97;;;;;;;2.05;76.98;98722.16;5005397;28;20503;-62
2022/04/01 11:01:38;;;;;;;5.93;5.27;;;;;;;2.22;75.92;98726.53;4986459;28;20233;-65
2022/04/01 11:04:07;;;;;;;5.63;5.13;;;;;;;2.29;75.19;98728.81;5006209;28;20177;-64
2022/04/01 11:06:32;;;;;;;5.63;5.03;;;;;;;2.07;75.66;98725.47;4983250;28;20190;-61
2022/04/01 11:08:57;;;;;;;5.13;4.70;;;;;;;2.16;76.50;98720.88;4971546;28;20176;-63
2022/04/01 11:11:23;;;;;;;9.80;5.53;;;;;;;2.17;76.36;98731.00;4969975;28;22358;-62
2022/04/01 11:14:05;;;;;;;6.80;6.10;;;;;;;2.24;74.81;98741.69;4982026;28;20183;-62
2022/04/01 11:16:47;;;;;;;6.22;5.63;;;;;;;2.35;73.81;98739.53;4991242;28;20456;-65
2022/04/01 11:19:18;;;;;;;5.30;4.90;;;;;;;2.28;73.20;98729.72;5010920;28;20174;-62
2022/04/01 11:21:45;;;;;;;5.63;5.13;;;;;;;2.40;73.39;98731.72;4990921;28;20238;-63
2022/04/01 11:24:21;;;;;;;6.23;5.23;;;;;;;2.25;73.02;98734.00;5008010;28;20634;-64
2022/04/01 11:26:47;;;;;;;5.13;4.60;;;;;;;2.19;73.85;98736.81;4991084;28;20536;-62
2022/04/01 11:29:21;;;;;;;5.80;5.30;;;;;;;2.27;73.71;98731.44;4985520;28;20193;-62
2022/04/01 11:31:46;;;;;;;5.97;5.13;;;;;;;2.22;73.60;98741.78;4964756;28;20240;-62
2022/04/01 11:34:12;;;;;;;6.13;5.47;;;;;;;2.30;73.53;98738.09;4973765;28;20176;-62
2022/04/01 11:36:38;;;;;;;5.17;4.60;;;;;;;2.28;74.30;98733.06;4976133;28;20719;-62
2022/04/01 11:39:09;;;;;;;5.53;5.03;;;;;;;2.40;74.29;98749.50;4974637;28;20192;-60
2022/04/01 11:41:51;;;;;;;8.67;5.53;;;;;;;2.32;74.33;98752.34;4978990;28;20697;-65
2022/04/01 11:44:16;;;;;;;7.23;5.07;;;;;;;2.26;73.57;98747.53;5007943;28;20182;-64
2022/04/01 11:46:49;;;;;;;5.97;4.50;;;;;;;2.06;74.17;98759.34;5000256;28;20250;-63
2022/04/01 11:49:15;;;;;;;5.30;4.80;;;;;;;1.92;74.59;98756.53;5012869;28;20203;-64
2022/04/01 11:51:40;;;;;;;5.47;4.63;;;;;;;2.10;74.64;98760.84;4990006;28;20246;-63